Time;durP1;ratioP1;P1;durP2;ratioP2;P2;SDS_P1;SDS_P2;PMS_P1;PMS_P2;Temp;Humidity;BMP_temperature;BMP_pressure;BME280_temperature;BME280_humidity;BME280_pressure;Samples;Min_cycle;Max_cycle;Signal;HPM_P1;HPM_P2
2022/08/19 00:02:22;;;;;;;9.52;6.57;;;;;;;23.54;53.18;98917.50;6189873;23;20055;-90
2022/08/19 00:04:52;;;;;;;9.98;6.45;;;;;;;23.60;53.45;98931.72;6190287;23;20001;-91
2022/08/19 00:07:18;;;;;;;10.90;6.70;;;;;;;23.61;54.14;98944.31;6167094;23;20517;-89
2022/08/19 00:09:43;;;;;;;8.68;6.57;;;;;;;23.46;54.41;98932.28;6189603;23;20001;-90
2022/08/19 00:12:10;;;;;;;10.27;6.75;;;;;;;23.38;54.54;98934.09;6159925;23;20020;-89
2022/08/19 00:14:35;;;;;;;10.20;7.60;;;;;;;23.40;54.17;98940.00;6137845;23;20036;-90
2022/08/19 00:17:02;;;;;;;10.52;7.10;;;;;;;23.39;54.53;98940.41;6189836;23;19992;-90
2022/08/19 00:19:27;;;;;;;12.18;7.75;;;;;;;23.37;54.66;98928.97;6165647;23;20000;-90
2022/08/19 00:21:54;;;;;;;14.35;8.73;;;;;;;23.34;54.68;98927.72;6164917;23;20001;-90
2022/08/19 00:24:19;;;;;;;11.40;7.93;;;;;;;23.35;53.95;98921.09;6166119;23;19997;-90
2022/08/19 00:26:45;;;;;;;11.82;8.32;;;;;;;23.34;54.09;98919.50;6165116;23;20328;-90
2022/08/19 00:29:11;;;;;;;9.60;7.18;;;;;;;23.33;53.74;98920.66;6165467;23;19996;-90
2022/08/19 00:31:37;;;;;;;10.65;7.72;;;;;;;23.37;53.29;98918.00;6165624;23;20003;-91
2022/08/19 00:34:03;;;;;;;10.02;7.00;;;;;;;23.38;54.03;98925.84;6165421;23;20017;-90
2022/08/19 00:36:28;;;;;;;8.55;6.72;;;;;;;23.35;53.40;98921.09;6140068;23;19997;-90
2022/08/19 00:38:54;;;;;;;8.40;6.93;;;;;;;23.29;53.22;98916.28;6140537;23;20005;-90
2022/08/19 00:41:21;;;;;;;9.20;6.43;;;;;;;23.19;53.73;98912.16;6140385;23;20005;-90
2022/08/19 00:44:03;;;;;;;8.27;6.30;;;;;;;23.29;53.58;98928.06;6189821;23;20007;-90
2022/08/19 00:46:29;;;;;;;9.57;6.90;;;;;;;23.26;53.53;98922.47;6190147;23;20011;-89
2022/08/19 00:48:54;;;;;;;9.00;6.43;;;;;;;23.20;53.06;98920.03;6164883;23;20000;-90
2022/08/19 00:51:22;;;;;;;9.93;6.60;;;;;;;23.20;53.44;98917.31;6164831;23;20376;-89
2022/08/19 00:53:47;;;;;;;10.02;5.95;;;;;;;23.20;54.53;98928.28;6141043;23;20003;-90
2022/08/19 00:56:12;;;;;;;9.55;6.28;;;;;;;23.25;54.61;98929.16;6164742;23;20419;-89
2022/08/19 00:58:39;;;;;;;8.55;6.45;;;;;;;23.00;54.82;98907.47;6189553;23;20008;-89
2022/08/19 01:01:05;;;;;;;9.30;6.72;;;;;;;22.88;55.14;98913.91;6140707;23;20055;-89
2022/08/19 01:03:30;;;;;;;9.45;6.43;;;;;;;22.76;56.01;98912.09;6164533;23;20080;-90
2022/08/19 01:05:56;;;;;;;12.57;7.60;;;;;;;22.74;56.21;98921.84;6164515;23;20001;-89
2022/08/19 01:08:21;;;;;;;13.18;6.82;;;;;;;22.56;55.66;98905.03;6139666;23;20005;-89
2022/08/19 01:10:52;;;;;;;11.50;6.57;;;;;;;22.65;55.58;98921.28;6164607;23;20413;-89
2022/08/19 01:13:21;;;;;;;9.38;7.22;;;;;;;22.63;55.57;98923.59;6189212;23;20059;-89
2022/08/19 01:15:50;;;;;;;8.88;6.45;;;;;;;22.67;55.39;98928.00;6165134;23;20076;-90
2022/08/19 01:18:16;;;;;;;8.55;6.60;;;;;;;22.50;55.92;98917.44;6164914;23;20039;-90
2022/08/19 01:20:42;;;;;;;9.13;7.10;;;;;;;22.71;54.93;98914.34;6139847;23;20431;-90
2022/08/19 01:23:07;;;;;;;9.05;6.97;;;;;;;22.79;54.88;98913.34;6134482;23;20032;-90
2022/08/19 01:25:40;;;;;;;12.00;7.10;;;;;;;22.73;54.23;98907.34;6184118;23;20001;-91
2022/08/19 01:28:06;;;;;;;10.75;7.22;;;;;;;22.72;55.25;98927.72;6184382;23;20072;-90
2022/08/19 01:30:32;;;;;;;10.82;7.50;;;;;;;22.64;55.82;98927.91;6159807;23;20016;-90
2022/08/19 01:33:00;;;;;;;13.07;7.00;;;;;;;22.59;55.93;98924.28;6134602;23;20036;-90
2022/08/19 01:35:28;;;;;;;10.88;6.97;;;;;;;22.48;56.17;98926.03;6135298;23;19993;-89
2022/08/19 01:37:59;;;;;;;9.10;6.65;;;;;;;22.46;56.97;98933.03;6134923;23;20333;-90
2022/08/19 01:40:26;;;;;;;7.67;6.20;;;;;;;22.42;57.25;98943.91;6134655;23;20024;-90
2022/08/19 01:42:52;;;;;;;8.55;6.40;;;;;;;22.29;56.95;98943.25;6158837;23;20579;-89
2022/08/19 01:45:18;;;;;;;9.38;6.28;;;;;;;22.18;57.04;98933.94;6134377;23;20088;-90
2022/08/19 01:47:44;;;;;;;7.95;6.00;;;;;;;22.12;57.84;98929.88;6159174;23;20492;-90
2022/08/19 01:50:10;;;;;;;8.63;6.10;;;;;;;22.05;58.17;98924.25;6135169;23;20043;-90
2022/08/19 01:52:37;;;;;;;9.25;6.20;;;;;;;22.02;58.26;98936.72;6183685;23;20043;-89
2022/08/19 01:55:04;;;;;;;9.88;6.32;;;;;;;21.97;58.33;98932.28;6134552;23;20420;-89
2022/08/19 01:57:29;;;;;;;8.38;6.60;;;;;;;21.90;58.47;98931.34;6159532;23;20444;-90
2022/08/19 01:59:54;;;;;;;8.68;6.50;;;;;;;21.90;59.10;98932.13;6133964;23;20017;-89
2022/08/19 02:02:20;;;;;;;11.27;7.00;;;;;;;21.90;58.56;98940.34;6134519;23;20012;-90
2022/08/19 02:04:45;;;;;;;10.05;6.88;;;;;;;21.86;59.21;98928.50;6159135;23;20004;-89
2022/08/19 02:07:11;;;;;;;9.27;7.03;;;;;;;21.88;58.71;98948.13;6158979;23;20012;-90
2022/08/19 02:09:36;;;;;;;9.88;7.53;;;;;;;21.72;59.41;98942.66;6159001;23;20005;-90
2022/08/19 02:12:03;;;;;;;10.23;7.88;;;;;;;21.66;59.55;98940.53;6134440;23;20005;-90
2022/08/19 02:14:29;;;;;;;12.55;7.72;;;;;;;21.64;59.79;98953.78;6159263;23;19997;-89
2022/08/19 02:16:54;;;;;;;10.02;7.57;;;;;;;21.54;59.86;98942.22;6158852;23;20051;-90
2022/08/19 02:19:19;;;;;;;10.38;7.63;;;;;;;21.61;59.99;98947.06;6134109;23;20031;-90
2022/08/19 02:21:45;;;;;;;13.70;7.43;;;;;;;21.52;60.05;98944.50;6159073;23;20518;-90
2022/08/19 02:24:10;;;;;;;12.05;7.85;;;;;;;21.50;60.61;98951.47;6158992;23;20017;-89
2022/08/19 02:26:36;;;;;;;11.88;8.45;;;;;;;21.51;60.66;98972.25;6134830;23;20005;-89
2022/08/19 02:29:01;;;;;;;11.05;7.93;;;;;;;21.40;61.36;98963.72;6158914;23;20024;-90
2022/08/19 02:31:27;;;;;;;12.60;7.68;;;;;;;21.32;61.14;98956.47;6130098;23;20002;-89
2022/08/19 02:33:55;;;;;;;11.63;7.53;;;;;;;21.28;61.50;98961.84;6158965;23;20008;-89
2022/08/19 02:36:20;;;;;;;10.85;7.63;;;;;;;21.31;61.85;98974.03;6153440;23;20002;-89
2022/08/19 02:38:46;;;;;;;9.02;7.47;;;;;;;21.34;61.78;98976.88;6109156;23;20416;-89
2022/08/19 02:41:22;;;;;;;14.48;7.88;;;;;;;21.25;61.74;98967.22;6158884;23;20416;-90
2022/08/19 02:43:48;;;;;;;11.65;7.72;;;;;;;21.24;61.52;98962.88;6134157;23;20090;-89
2022/08/19 02:46:13;;;;;;;14.30;7.60;;;;;;;21.34;61.61;98990.56;6133810;23;20383;-90
2022/08/19 02:48:39;;;;;;;10.15;7.43;;;;;;;21.28;60.80;98974.75;6185087;23;20025;-90
2022/08/19 02:51:05;;;;;;;12.35;8.13;;;;;;;21.27;61.29;98968.47;6158182;23;20047;-89
2022/08/19 02:53:30;;;;;;;11.38;8.70;;;;;;;21.30;61.00;98973.22;6158500;23;20005;-89
2022/08/19 02:55:56;;;;;;;10.48;8.38;;;;;;;21.35;61.27;98991.34;6133760;23;19997;-89
2022/08/19 02:58:21;;;;;;;12.85;8.88;;;;;;;21.23;61.22;98980.44;6158794;23;20436;-89
2022/08/19 03:00:49;;;;;;;10.60;8.55;;;;;;;21.20;61.64;98990.94;6183436;23;20477;-90
2022/08/19 03:03:15;;;;;;;14.40;8.45;;;;;;;21.21;60.96;98980.81;6133314;23;20432;-89
2022/08/19 03:05:41;;;;;;;11.63;8.25;;;;;;;21.09;60.99;98981.66;6158191;23;20004;-90
2022/08/19 03:08:08;;;;;;;11.35;8.10;;;;;;;21.09;61.55;98998.09;6133721;23;20080;-89
2022/08/19 03:10:40;;;;;;;10.32;8.07;;;;;;;20.98;61.56;98989.56;6135142;23;20025;-90
2022/08/19 03:13:05;;;;;;;13.30;7.47;;;;;;;20.94;61.64;98987.88;6133386;23;20001;-89
2022/08/19 03:15:31;;;;;;;10.68;7.95;;;;;;;20.97;61.72;98998.91;6134217;23;19997;-90
2022/08/19 03:17:56;;;;;;;13.50;7.97;;;;;;;20.90;62.30;98998.72;6158293;23;20001;-89
2022/08/19 03:20:22;;;;;;;9.50;7.50;;;;;;;20.96;62.26;98999.28;6183270;23;20001;-90
2022/08/19 03:22:47;;;;;;;11.70;7.55;;;;;;;20.97;61.87;99000.88;6170117;23;20071;-89
2022/08/19 03:25:12;;;;;;;14.43;8.05;;;;;;;20.97;62.38;98995.38;6188287;23;20087;-89
2022/08/19 03:27:38;;;;;;;10.07;7.20;;;;;;;21.03;62.20;99009.63;6138685;23;19992;-90
2022/08/19 03:30:04;;;;;;;11.23;7.30;;;;;;;21.10;62.04;99013.34;6187907;23;20340;-89
2022/08/19 03:32:29;;;;;;;9.93;7.13;;;;;;;20.93;61.70;98983.53;6188556;23;20415;-89
2022/08/19 03:34:55;;;;;;;9.60;7.68;;;;;;;20.95;62.03;98997.69;6214380;23;20007;-89
2022/08/19 03:37:22;;;;;;;9.85;6.88;;;;;;;21.01;61.91;99003.72;6163791;23;20379;-89
2022/08/19 03:39:47;;;;;;;12.23;7.15;;;;;;;21.14;60.83;99008.00;6164428;23;20003;-89
2022/08/19 03:42:13;;;;;;;9.45;7.00;;;;;;;21.17;61.57;99027.25;6163333;23;20343;-89
2022/08/19 03:44:38;;;;;;;11.45;7.15;;;;;;;20.94;61.99;99015.25;6138772;23;20383;-90
2022/08/19 03:47:05;;;;;;;10.23;7.60;;;;;;;20.83;62.49;99027.81;6163734;23;20088;-89
2022/08/19 03:49:31;;;;;;;9.48;7.10;;;;;;;20.85;62.96;99037.25;6160530;23;20448;-89
2022/08/19 03:51:57;;;;;;;12.93;7.35;;;;;;;20.75;62.92;99038.56;6162828;23;20347;-89
2022/08/19 03:54:23;;;;;;;11.07;6.97;;;;;;;20.67;63.04;99014.03;6136034;23;20027;-89
2022/08/19 03:56:49;;;;;;;9.38;6.00;;;;;;;20.71;62.86;99032.19;6162058;23;19997;-89
2022/08/19 03:59:18;;;;;;;15.00;7.18;;;;;;;20.64;63.40;99025.69;6163109;23;20024;-89
2022/08/19 04:01:44;;;;;;;10.55;7.50;;;;;;;20.65;63.50;99049.97;6163284;23;20004;-95
2022/08/19 04:04:12;;;;;;;12.93;6.93;;;;;;;20.63;62.81;99033.09;6190396;23;19999;-94
2022/08/19 04:06:38;;;;;;;8.38;6.35;;;;;;;20.61;62.82;99038.13;6141897;23;20498;-94
2022/08/19 04:09:06;;;;;;;8.50;6.80;;;;;;;20.57;62.99;99048.13;6188550;23;20002;-89
2022/08/19 04:11:34;;;;;;;9.00;6.60;;;;;;;20.53;63.56;99042.53;6163425;23;20071;-89
2022/08/19 04:14:00;;;;;;;10.88;6.85;;;;;;;20.54;64.22;99055.09;6188672;23;20059;-93
2022/08/19 04:16:28;;;;;;;8.85;6.50;;;;;;;20.53;64.21;99066.34;6142866;23;20076;-95
2022/08/19 04:18:54;;;;;;;10.32;6.60;;;;;;;20.28;64.99;99044.47;6172993;23;19996;-95
2022/08/19 04:21:21;;;;;;;11.52;6.45;;;;;;;20.29;65.19;99046.06;6166268;23;20071;-94
2022/08/19 04:23:47;;;;;;;13.90;7.30;;;;;;;20.36;64.66;99048.25;6134980;23;20017;-88
2022/08/19 04:26:18;;;;;;;11.88;7.28;;;;;;;20.42;64.38;99035.13;6161054;23;20440;-93
2022/08/19 04:28:44;;;;;;;8.97;6.73;;;;;;;20.73;63.64;99051.78;6187248;23;20032;-94
2022/08/19 04:31:14;;;;;;;14.00;8.70;;;;;;;20.93;63.78;99043.75;6138781;23;20001;-93
2022/08/19 04:33:39;;;;;;;16.60;8.52;;;;;;;20.90;62.99;99050.72;6162389;23;20004;-92
2022/08/19 04:36:05;;;;;;;13.60;8.65;;;;;;;20.87;63.39;99043.19;6160635;23;19993;-92
2022/08/19 04:38:31;;;;;;;13.73;8.63;;;;;;;20.67;63.82;99036.75;6160961;23;20044;-93
2022/08/19 04:43:40;;;;;;;12.68;9.50;;;;;;;20.67;63.62;99034.00;6165734;23;20011;-91
2022/08/19 04:46:11;;;;;;;16.50;9.57;;;;;;;20.84;63.64;99054.84;6186376;23;20005;-95
2022/08/19 04:48:37;;;;;;;16.10;8.98;;;;;;;20.92;62.94;99036.69;6161120;23;20448;-88
2022/08/19 04:51:06;;;;;;;13.65;8.77;;;;;;;21.11;62.63;99053.28;6160163;23;20024;-90
2022/08/19 04:53:36;;;;;;;10.80;8.60;;;;;;;21.07;61.96;99049.66;6161263;23;20397;-94
2022/08/19 04:56:05;;;;;;;11.20;8.15;;;;;;;21.31;61.81;99056.19;6163121;23;19993;-94
2022/08/19 04:58:30;;;;;;;16.00;10.00;;;;;;;21.51;60.39;99043.47;6138463;23;20005;-94
2022/08/19 05:00:56;;;;;;;11.07;7.72;;;;;;;21.64;59.54;99033.25;6160832;23;20004;-95
2022/08/19 05:03:21;;;;;;;13.50;8.60;;;;;;;21.75;58.90;99035.13;6163244;23;20004;-93
2022/08/19 05:05:50;;;;;;;15.95;9.10;;;;;;;21.82;59.44;99030.97;6141797;23;20008;-94
2022/08/19 05:08:20;;;;;;;13.57;9.07;;;;;;;21.87;59.33;99036.19;6139294;23;20001;-93
2022/08/19 05:10:50;;;;;;;12.38;8.43;;;;;;;22.19;58.58;99043.28;6186308;23;20428;-93
2022/08/19 05:13:16;;;;;;;11.50;8.05;;;;;;;22.29;57.89;99050.22;6137276;23;20083;-96
2022/08/19 05:15:42;;;;;;;10.77;8.60;;;;;;;22.48;57.56;99063.22;6162840;23;20021;-93
2022/08/19 05:23:36;;;;;;;10.82;7.75;;;;;;;22.74;56.86;99062.66;6167737;23;20073;-93
2022/08/19 05:26:01;;;;;;;15.63;7.93;;;;;;;22.65;57.25;99050.25;6136662;23;20044;-93
2022/08/19 05:28:29;;;;;;;14.82;7.68;;;;;;;22.62;56.63;99034.50;6162374;23;20008;-93
2022/08/19 05:30:58;;;;;;;12.85;7.65;;;;;;;22.76;56.63;99052.06;6139191;23;20005;-92
2022/08/19 05:33:24;;;;;;;14.13;7.93;;;;;;;22.84;56.43;99050.28;6165716;23;20288;-91
2022/08/19 05:35:52;;;;;;;12.02;7.90;;;;;;;22.82;56.43;99035.34;6164591;23;19997;-94
2022/08/19 05:38:18;;;;;;;13.65;9.07;;;;;;;22.90;55.89;99045.31;6138147;23;20001;-94
2022/08/19 05:40:49;;;;;;;13.38;9.48;;;;;;;23.17;56.03;99057.31;6186906;23;20001;-94
2022/08/19 05:43:17;;;;;;;15.40;9.88;;;;;;;23.30;55.19;99063.44;6161373;23;20011;-94
2022/08/19 05:45:43;;;;;;;20.73;9.73;;;;;;;23.38;55.63;99059.69;6187415;23;20080;-90
2022/08/19 05:48:12;;;;;;;16.60;10.07;;;;;;;23.40;54.80;99054.63;6158702;23;20347;-90
2022/08/19 05:50:39;;;;;;;14.82;10.55;;;;;;;23.48;55.09;99056.38;6133547;23;20009;-92
2022/08/19 05:53:05;;;;;;;17.80;10.65;;;;;;;23.43;54.43;99033.88;6134067;23;20001;-92
2022/08/19 05:55:31;;;;;;;13.60;10.57;;;;;;;23.65;54.94;99049.63;6136035;23;20075;-93
2022/08/19 05:57:57;;;;;;;17.92;10.55;;;;;;;23.82;54.02;99042.88;6140130;23;20399;-93
2022/08/19 06:00:22;;;;;;;16.67;11.60;;;;;;;23.91;53.80;99046.19;6137182;23;20016;-94
2022/08/19 06:02:48;;;;;;;15.30;10.75;;;;;;;24.07;53.23;99064.53;6161262;23;20431;-93
2022/08/19 06:05:15;;;;;;;15.65;11.63;;;;;;;24.07;51.54;99048.81;6135812;23;20424;-94
2022/08/19 06:07:40;;;;;;;15.85;11.63;;;;;;;24.16;51.35;99045.84;6187625;23;20004;-94
2022/08/19 06:10:07;;;;;;;25.52;12.80;;;;;;;24.30;50.82;99046.06;6138113;23;20000;-93
2022/08/19 06:12:34;;;;;;;20.08;11.88;;;;;;;24.47;49.79;99052.22;6136710;23;20004;-92
2022/08/19 06:15:00;;;;;;;14.63;11.48;;;;;;;24.53;49.82;99037.81;6135234;23;20001;-94
2022/08/19 06:17:26;;;;;;;15.70;10.35;;;;;;;24.67;49.44;99039.94;6159744;23;20040;-94
2022/08/19 06:19:52;;;;;;;14.55;10.27;;;;;;;24.88;48.94;99046.94;6162271;23;20003;-95
2022/08/19 06:22:17;;;;;;;17.48;11.15;;;;;;;24.94;48.42;99040.72;6163289;23;20000;-93
2022/08/19 06:24:43;;;;;;;15.95;9.05;;;;;;;25.02;48.44;99041.63;6191642;23;20007;-93
2022/08/19 06:27:08;;;;;;;17.92;10.15;;;;;;;25.12;48.40;99045.69;6165000;23;20008;-93
2022/08/19 06:29:34;;;;;;;11.93;8.85;;;;;;;25.24;47.99;99041.94;6139158;23;20059;-94
2022/08/19 06:32:04;;;;;;;13.82;9.18;;;;;;;25.28;48.41;99029.78;6166876;23;20072;-94
2022/08/19 06:34:31;;;;;;;12.60;8.85;;;;;;;25.58;47.40;99053.72;6167780;23;20042;-94
2022/08/19 06:36:57;;;;;;;11.63;8.80;;;;;;;25.64;46.98;99046.72;6167340;23;20351;-94
2022/08/19 06:39:24;;;;;;;13.80;9.65;;;;;;;25.79;47.12;99036.59;6192324;23;20004;-95
2022/08/19 06:41:52;;;;;;;12.75;8.25;;;;;;;25.84;46.82;99032.72;6178060;23;20150;-95
2022/08/19 06:44:19;;;;;;;14.30;8.13;;;;;;;25.96;46.95;99043.50;6191119;23;20419;-95
2022/08/19 06:46:44;;;;;;;13.18;9.63;;;;;;;26.07;47.31;99027.06;6140989;23;20008;-94
2022/08/19 06:49:13;;;;;;;9.63;6.50;;;;;;;26.22;47.58;99042.56;6166599;23;20000;-93
2022/08/19 06:51:49;;;;;;;10.98;7.32;;;;;;;26.28;47.15;99041.03;6165478;23;20166;-94
2022/08/19 06:54:15;;;;;;;8.45;6.45;;;;;;;26.36;47.33;99023.34;6165464;23;20070;-95
2022/08/19 06:56:45;;;;;;;11.60;7.07;;;;;;;26.55;46.75;99024.25;6165417;23;20005;-94
2022/08/19 06:59:16;;;;;;;11.07;8.40;;;;;;;26.76;46.27;99032.69;6161533;23;20032;-94
2022/08/19 07:05:06;;;;;;;;;;;;;;;27.10;45.81;99049.06;6217984;23;20335;-93
2022/08/19 07:07:35;;;;;;;7.57;5.55;;;;;;;26.90;46.64;99025.69;6191774;23;19908;-93
2022/08/19 07:10:01;;;;;;;8.48;5.50;;;;;;;27.10;46.13;99028.91;6168914;23;20004;-96
2022/08/19 07:12:34;;;;;;;9.35;5.85;;;;;;;27.25;45.90;99022.31;6165156;23;20000;-93
2022/08/19 07:15:00;;;;;;;7.22;5.22;;;;;;;27.34;45.67;99008.88;6166873;23;20063;-95
2022/08/19 07:17:26;;;;;;;7.13;4.88;;;;;;;27.64;45.46;99027.13;6165911;23;19992;-93
2022/08/19 07:19:52;;;;;;;6.85;4.95;;;;;;;27.71;45.31;99023.59;6190018;23;20000;-95
2022/08/19 07:22:20;;;;;;;8.10;4.97;;;;;;;27.74;44.91;99023.59;6189719;23;20384;-95
2022/08/19 07:24:45;;;;;;;7.63;5.07;;;;;;;27.79;44.38;99012.16;6165418;23;20069;-91
2022/08/19 07:27:25;;;;;;;10.27;4.75;;;;;;;27.98;44.48;99015.75;6166130;23;20005;-95
2022/08/19 07:29:52;;;;;;;6.15;4.68;;;;;;;28.02;44.03;99025.63;6154188;23;20062;-92
2022/08/19 07:32:18;;;;;;;5.97;4.20;;;;;;;28.11;43.51;99016.94;6189196;23;20023;-89
2022/08/19 07:34:45;;;;;;;5.82;4.25;;;;;;;28.25;42.67;99023.66;6215824;23;20000;-91
2022/08/19 07:37:10;;;;;;;5.75;3.92;;;;;;;28.50;42.16;99035.53;6188756;23;20502;-93
2022/08/19 07:39:39;;;;;;;5.85;4.40;;;;;;;28.55;41.99;99032.34;6216001;23;20001;-94
2022/08/19 07:42:29;;;;;;;4.90;4.15;;;;;;;28.73;41.82;99042.63;6215642;23;20003;-94
2022/08/19 07:44:54;;;;;;;8.88;4.80;;;;;;;28.74;42.67;99024.78;6216285;23;20051;-93
2022/08/19 07:47:20;;;;;;;6.07;5.03;;;;;;;28.91;42.93;99031.47;6215335;23;20005;-93
2022/08/19 07:49:46;;;;;;;8.82;6.38;;;;;;;28.86;41.68;99021.59;6214115;23;20004;-93
2022/08/19 07:52:16;;;;;;;6.55;4.28;;;;;;;29.12;41.21;99042.53;6188460;23;20467;-96
2022/08/19 07:54:42;;;;;;;7.85;4.32;;;;;;;29.14;40.71;99042.91;6191376;23;20000;-94
2022/08/19 07:57:11;;;;;;;5.13;3.83;;;;;;;28.90;40.70;99027.13;6189016;23;20023;-95
2022/08/19 07:59:36;;;;;;;7.85;4.50;;;;;;;29.05;40.96;99028.66;6191770;23;20442;-94
2022/08/19 08:02:05;;;;;;;4.78;3.80;;;;;;;29.04;41.21;99029.84;6215932;23;19997;-94
2022/08/19 08:09:59;;;;;;;8.00;3.65;;;;;;;29.49;39.83;99026.50;6195901;23;20023;-94
2022/08/19 08:12:28;;;;;;;5.65;4.22;;;;;;;29.53;39.95;99002.28;6216193;23;19996;-94
2022/08/19 08:14:55;;;;;;;4.70;4.07;;;;;;;29.58;39.73;99007.44;6192312;23;20003;-92
2022/08/19 08:17:21;;;;;;;5.68;4.30;;;;;;;29.73;41.09;99005.38;6191515;23;20007;-93
2022/08/19 08:19:47;;;;;;;7.28;4.00;;;;;;;29.88;39.76;99008.84;6193060;23;20062;-93
2022/08/19 08:25:10;;;;;;;34.17;23.63;;;;;;;30.01;37.49;98996.06;6195118;23;20089;-92
2022/08/19 08:27:40;;;;;;;7.75;5.10;;;;;;;30.01;38.23;99002.38;6191585;23;20059;-92
2022/08/19 08:30:10;;;;;;;8.68;6.50;;;;;;;30.17;37.76;99007.41;6164390;23;20004;-93
2022/08/19 08:35:58;;;;;;;10.35;4.93;;;;;;;30.38;36.90;99017.56;6216568;23;20051;-93
2022/08/19 08:38:24;;;;;;;7.13;4.72;;;;;;;30.23;38.04;98999.41;6165728;23;20004;-93
2022/08/19 08:41:09;;;;;;;6.45;4.63;;;;;;;30.37;37.73;99021.53;6166222;23;20424;-93
2022/08/19 08:43:41;;;;;;;6.40;4.65;;;;;;;30.31;37.68;98997.41;6193138;23;20000;-94
2022/08/19 08:46:17;;;;;;;6.63;3.80;;;;;;;30.40;36.91;98994.91;6180136;23;20000;-95
2022/08/19 08:48:48;;;;;;;5.30;4.00;;;;;;;30.56;35.29;99020.16;6167617;23;20008;-91
2022/08/19 08:51:23;;;;;;;9.57;4.65;;;;;;;30.39;36.55;98996.91;6189533;23;20008;-94
2022/08/19 08:53:51;;;;;;;6.53;4.00;;;;;;;30.48;36.57;98998.41;6188996;23;20000;-92
2022/08/19 08:56:19;;;;;;;7.00;4.45;;;;;;;30.68;35.24;99015.28;6190774;23;20447;-93
2022/08/19 08:58:57;;;;;;;5.72;3.70;;;;;;;30.60;35.30;98998.69;6166977;23;20084;-91
2022/08/19 09:01:29;;;;;;;7.00;4.15;;;;;;;30.72;33.99;98996.59;6191509;23;20000;-92
2022/08/19 09:04:23;;;;;;;4.40;3.17;;;;;;;30.70;35.02;98994.22;6215933;23;20071;-96
2022/08/19 09:07:00;;;;;;;4.22;3.42;;;;;;;30.71;34.25;98995.78;6180692;23;20079;-94
2022/08/19 09:09:35;;;;;;;5.65;3.30;;;;;;;30.90;35.04;99005.53;6136267;23;20028;-91
2022/08/19 09:12:34;;;;;;;4.85;3.50;;;;;;;31.05;34.32;99006.16;6158362;23;20012;-92
2022/08/19 09:15:05;;;;;;;6.22;3.92;;;;;;;31.03;33.85;98983.53;6133734;23;20000;-90
2022/08/19 09:17:33;;;;;;;5.88;3.55;;;;;;;31.15;34.67;98987.72;6109365;23;20004;-89
2022/08/19 09:20:06;;;;;;;6.65;3.72;;;;;;;31.05;33.81;98983.91;6109983;23;20001;-93
2022/08/19 09:22:46;;;;;;;7.93;3.92;;;;;;;31.08;34.71;98983.06;6161864;23;20021;-93
2022/08/19 09:25:16;;;;;;;5.82;3.80;;;;;;;31.04;34.76;98979.53;6141507;23;20015;-96
2022/08/19 09:27:43;;;;;;;4.83;3.23;;;;;;;31.00;34.84;98992.69;6166213;23;20030;-93
2022/08/19 09:30:13;;;;;;;5.78;3.47;;;;;;;31.21;34.22;99002.75;6166196;23;20518;-94
2022/08/19 09:32:52;;;;;;;4.90;3.60;;;;;;;31.11;34.30;98998.13;6143191;23;20000;-96
2022/08/19 09:35:18;;;;;;;5.50;3.63;;;;;;;31.14;34.63;98988.94;6192145;23;20010;-95
2022/08/19 09:37:46;;;;;;;6.15;4.07;;;;;;;31.22;34.41;98973.75;6219589;23;20004;-95
2022/08/19 09:40:15;;;;;;;4.05;3.50;;;;;;;31.29;34.91;98983.97;6169291;23;20403;-96
2022/08/19 09:42:49;;;;;;;5.25;4.28;;;;;;;31.28;34.19;98985.97;6170379;23;20094;-96
2022/08/19 09:45:21;;;;;;;5.72;4.07;;;;;;;31.33;35.01;98966.03;6175610;23;20443;-95
2022/08/19 09:47:50;;;;;;;5.00;3.55;;;;;;;31.42;34.12;98980.22;6169005;23;20007;-95
2022/08/19 09:50:16;;;;;;;8.43;3.35;;;;;;;31.44;34.13;98968.69;6191838;23;20072;-96
2022/08/19 09:52:42;;;;;;;8.70;4.05;;;;;;;31.54;34.68;98955.81;6191234;23;20104;-92
2022/08/19 09:55:13;;;;;;;4.07;3.40;;;;;;;31.51;34.47;98970.59;6140456;23;20023;-95
2022/08/19 09:57:40;;;;;;;4.53;3.28;;;;;;;31.56;33.73;98964.53;6191034;23;19993;-93
2022/08/19 10:00:20;;;;;;;4.55;3.58;;;;;;;31.64;33.66;98963.22;6147513;23;20011;-95
2022/08/19 10:02:45;;;;;;;4.93;3.50;;;;;;;31.72;33.63;98973.03;6192800;23;20083;-94
2022/08/19 10:07:55;;;;;;;5.85;3.30;;;;;;;31.77;33.01;98963.41;6193991;23;20046;-94
2022/08/19 10:10:21;;;;;;;5.63;3.33;;;;;;;31.84;33.74;98962.53;6217446;23;20000;-95
2022/08/19 10:12:49;;;;;;;6.07;3.58;;;;;;;31.84;32.79;98960.53;6139559;23;20011;-92
2022/08/19 10:15:18;;;;;;;6.47;3.30;;;;;;;31.90;32.95;98972.75;6140407;23;20070;-94
2022/08/19 10:17:44;;;;;;;6.82;3.78;;;;;;;31.93;32.83;98960.75;6190808;23;20071;-93
2022/08/19 10:20:10;;;;;;;4.63;3.58;;;;;;;31.49;33.06;98973.78;6190824;23;20004;-95
2022/08/19 10:22:37;;;;;;;6.07;3.45;;;;;;;31.37;32.93;98954.84;6216248;23;20016;-94
2022/08/19 10:25:03;;;;;;;4.22;3.45;;;;;;;31.64;32.63;98952.09;6164453;23;20008;-94
2022/08/19 10:27:30;;;;;;;3.80;3.35;;;;;;;31.51;31.55;98948.31;6164128;23;20047;-95
2022/08/19 10:29:56;;;;;;;4.75;3.28;;;;;;;31.57;32.59;98961.34;6164575;23;20001;-95
2022/08/19 10:32:21;;;;;;;6.13;3.45;;;;;;;31.72;32.95;98959.13;6189390;23;20080;-94
2022/08/19 10:34:49;;;;;;;4.30;3.60;;;;;;;31.74;33.03;98948.34;6165763;23;20447;-94
2022/08/19 10:37:24;;;;;;;3.92;3.33;;;;;;;31.93;33.50;98952.41;6165204;23;20443;-94
2022/08/19 10:39:49;;;;;;;9.50;3.80;;;;;;;31.87;33.21;98948.53;6165620;23;20066;-94
2022/08/19 10:42:20;;;;;;;3.65;3.20;;;;;;;31.83;33.06;98942.22;6188982;23;20423;-94
2022/08/19 10:44:49;;;;;;;4.20;3.15;;;;;;;31.96;32.96;98931.25;6189475;23;20000;-94
2022/08/19 10:47:15;;;;;;;4.20;3.55;;;;;;;32.10;32.81;98935.84;6164846;23;20170;-93
2022/08/19 10:52:33;;;;;;;4.28;3.22;;;;;;;32.22;31.36;98954.72;6193606;23;20011;-91
2022/08/19 10:57:48;;;;;;;5.30;3.90;;;;;;;32.30;32.33;98935.88;6195256;23;20015;-95
2022/08/19 11:00:14;;;;;;;5.05;3.63;;;;;;;32.40;32.19;98923.75;6165693;23;20004;-95
2022/08/19 11:02:41;;;;;;;3.92;3.00;;;;;;;32.57;31.83;98938.56;6188993;23;20008;-94
2022/08/19 11:05:07;;;;;;;4.68;3.33;;;;;;;32.45;31.53;98931.59;6164502;23;20004;-94
2022/08/19 11:07:37;;;;;;;5.32;3.67;;;;;;;32.32;31.66;98913.94;6165180;23;20348;-94
2022/08/19 11:10:03;;;;;;;3.97;3.08;;;;;;;32.31;31.32;98915.16;6189398;23;19996;-94
2022/08/19 11:12:28;;;;;;;5.85;3.30;;;;;;;32.36;31.09;98934.94;6189491;23;20031;-94
2022/08/19 11:14:54;;;;;;;4.28;3.22;;;;;;;32.32;31.33;98931.44;6189361;23;19997;-93
2022/08/19 11:17:23;;;;;;;4.25;3.05;;;;;;;32.42;30.84;98929.69;6163386;23;20007;-93
2022/08/19 11:19:49;;;;;;;4.90;3.10;;;;;;;32.49;31.06;98935.09;6190017;23;20001;-95
2022/08/19 11:22:20;;;;;;;4.15;3.20;;;;;;;32.36;30.82;98921.00;6164256;23;20004;-95
2022/08/19 11:24:49;;;;;;;4.32;3.08;;;;;;;32.47;29.63;98931.16;6214638;23;20356;-95
2022/08/19 11:27:17;;;;;;;5.93;3.30;;;;;;;32.32;29.51;98916.72;6214518;23;20005;-94
2022/08/19 11:29:44;;;;;;;3.75;3.13;;;;;;;32.41;30.41;98933.66;6165035;23;20452;-95
2022/08/19 11:32:09;;;;;;;3.88;2.97;;;;;;;32.48;30.57;98925.19;6214088;23;20421;-96
2022/08/19 11:34:35;;;;;;;4.72;3.08;;;;;;;32.56;29.92;98917.47;6188953;23;20079;-94
2022/08/19 11:37:01;;;;;;;4.45;3.25;;;;;;;32.73;30.00;98918.34;6212998;23;19996;-91
2022/08/19 11:39:28;;;;;;;4.25;2.80;;;;;;;32.86;30.34;98926.84;6214894;23;19997;-92
2022/08/19 11:41:53;;;;;;;7.38;3.35;;;;;;;32.99;30.54;98911.00;6214160;23;19997;-92
2022/08/19 11:44:19;;;;;;;4.38;3.50;;;;;;;33.14;30.19;98920.66;6214602;23;19997;-93
2022/08/19 11:46:51;;;;;;;3.17;2.85;;;;;;;33.18;30.33;98909.41;6213181;23;20020;-96
2022/08/19 11:49:27;;;;;;;5.90;3.60;;;;;;;32.99;30.58;98908.97;6214742;23;20012;-92
2022/08/19 11:51:53;;;;;;;5.93;3.28;;;;;;;33.01;29.97;98912.13;6213679;23;20050;-95
2022/08/19 11:54:18;;;;;;;23.85;17.85;;;;;;;32.83;30.13;98908.94;6213882;23;19996;-94
2022/08/19 11:56:45;;;;;;;11.90;8.80;;;;;;;32.79;30.29;98914.63;6214698;23;20001;-91
2022/08/19 11:59:11;;;;;;;6.28;2.92;;;;;;;32.78;29.70;98898.31;6188658;23;20005;-95
2022/08/19 12:01:36;;;;;;;7.38;3.30;;;;;;;32.82;29.91;98896.22;6189337;23;20000;-93
2022/08/19 12:04:04;;;;;;;4.20;3.35;;;;;;;32.94;30.47;98906.72;6189172;23;20007;-95